Time;durP1;ratioP1;P1;durP2;ratioP2;P2;SDS_P1;SDS_P2;PMS_P1;PMS_P2;Temp;Humidity;BMP_temperature;BMP_pressure;BME280_temperature;BME280_humidity;BME280_pressure;Samples;Min_cycle;Max_cycle;Signal;HPM_P1;HPM_P2
2023/03/24 00:01:26;;;;;;;13.43;7.75;;;13.30;99.90;;;13.56;100.00;99503.59;4992883;28;20408;-64
2023/03/24 00:03:55;;;;;;;13.15;7.50;;;13.30;99.90;;;13.53;100.00;99511.66;4993031;28;20428;-65
2023/03/24 00:06:25;;;;;;;13.10;7.80;;;13.30;99.90;;;13.51;100.00;99500.22;4991898;28;20133;-65
2023/03/24 00:08:54;;;;;;;20.42;8.43;;;13.30;99.90;;;13.30;100.00;99469.19;4995793;28;20050;-65
2023/03/24 00:11:25;;;;;;;11.80;7.40;;;13.40;99.90;;;13.58;100.00;99479.63;4996794;28;20050;-65
2023/03/24 00:13:57;;;;;;;11.55;7.10;;;13.40;99.90;;;13.55;100.00;99488.56;4995980;28;20050;-65
2023/03/24 00:16:26;;;;;;;12.02;7.22;;;13.40;99.90;;;13.62;100.00;99489.19;4996897;28;20043;-65
2023/03/24 00:18:55;;;;;;;12.82;6.88;;;13.40;99.90;;;13.67;100.00;99495.19;4997214;28;20045;-65
2023/03/24 00:21:25;;;;;;;12.38;7.32;;;13.40;99.90;;;13.68;100.00;99474.81;4996608;28;20109;-65
2023/03/24 00:23:57;;;;;;;15.98;8.10;;;13.50;99.90;;;13.73;100.00;99443.59;4996848;28;20054;-65
2023/03/24 00:26:28;;;;;;;9.27;6.85;;;13.50;99.90;;;13.78;100.00;99460.25;4997045;28;20046;-65
2023/03/24 00:28:57;;;;;;;14.40;7.22;;;13.50;99.90;;;13.82;100.00;99461.84;4995619;28;20055;-65
2023/03/24 00:31:26;;;;;;;9.80;6.65;;;13.60;99.90;;;13.83;100.00;99453.81;4995223;28;20046;-65
2023/03/24 00:33:54;;;;;;;9.35;7.10;;;13.60;99.90;;;13.85;100.00;99469.69;4995138;28;20411;-65
2023/03/24 00:36:25;;;;;;;12.57;6.43;;;13.60;99.90;;;13.91;100.00;99472.09;4996381;28;20500;-65
2023/03/24 00:38:55;;;;;;;8.45;6.28;;;13.70;99.90;;;13.96;100.00;99443.53;4995260;28;20054;-66
2023/03/24 00:41:27;;;;;;;12.43;6.93;;;13.70;99.90;;;13.99;100.00;99457.59;4995048;28;20038;-66
2023/03/24 00:43:58;;;;;;;10.25;6.78;;;13.80;99.90;;;14.01;100.00;99447.75;4996597;28;20070;-66
2023/03/24 00:46:27;;;;;;;10.10;6.15;;;13.70;99.90;;;14.04;100.00;99436.97;4996271;28;20050;-67
2023/03/24 00:49:02;;;;;;;10.93;7.30;;;13.80;99.90;;;14.12;100.00;99441.97;4995134;28;20042;-66
2023/03/24 00:51:33;;;;;;;12.52;7.18;;;13.90;99.90;;;14.01;100.00;99420.28;4995149;28;20062;-66
2023/03/24 00:54:02;;;;;;;10.38;6.00;;;13.80;99.90;;;13.99;100.00;99448.72;4996252;28;20096;-65
2023/03/24 00:56:39;;;;;;;13.63;7.05;;;13.80;99.90;;;13.96;100.00;99451.50;4994715;28;20050;-66
2023/03/24 00:59:08;;;;;;;12.38;7.00;;;13.70;99.90;;;13.99;100.00;99424.81;4996211;28;20050;-65
2023/03/24 01:01:39;;;;;;;10.07;6.72;;;13.70;99.90;;;13.92;100.00;99410.91;4995951;28;20062;-65
2023/03/24 01:04:09;;;;;;;;;;;13.70;99.90;;;13.95;100.00;99439.16;4996512;28;20039;-65
2023/03/24 01:06:38;;;;;;;8.52;6.32;;;13.70;99.90;;;13.92;100.00;99439.25;4995848;28;20383;-66
2023/03/24 01:09:09;;;;;;;14.07;7.13;;;13.70;99.90;;;13.98;100.00;99415.97;4995803;28;20084;-66
2023/03/24 01:11:40;;;;;;;;;;;13.70;99.90;;;13.99;100.00;99451.38;4996371;28;20108;-66
2023/03/24 01:14:10;;;;;;;8.60;6.15;;;13.70;99.90;;;14.00;100.00;99421.22;4995908;28;19925;-65
2023/03/24 01:16:39;;;;;;;8.67;6.93;;;13.80;99.90;;;14.03;100.00;99448.53;4995862;28;20097;-65
2023/03/24 01:19:09;;;;;;;11.40;7.22;;;13.70;99.90;;;14.03;100.00;99471.59;4995159;28;20061;-65
2023/03/24 01:21:40;;;;;;;9.85;7.97;;;13.80;99.90;;;14.02;100.00;99436.19;4995342;28;20038;-66
2023/03/24 01:24:12;;;;;;;13.90;8.85;;;13.80;99.90;;;14.01;100.00;99442.44;4995618;28;20046;-65
2023/03/24 01:26:42;;;;;;;10.55;7.93;;;13.80;99.90;;;14.08;100.00;99458.97;4994594;28;21035;-65
2023/03/24 01:29:11;;;;;;;10.20;5.95;;;13.80;99.90;;;13.88;100.00;99450.97;4995667;28;20072;-66
2023/03/24 01:31:39;;;;;;;9.63;5.75;;;13.60;99.90;;;13.68;100.00;99429.63;4995384;28;20500;-66
2023/03/24 01:34:08;;;;;;;10.90;5.10;;;13.60;99.90;;;13.43;100.00;99443.88;4993914;28;20052;-65
2023/03/24 01:36:36;;;;;;;12.63;5.22;;;13.40;99.90;;;13.65;100.00;99493.50;4995502;28;20064;-65
2023/03/24 01:39:05;;;;;;;9.90;5.47;;;13.40;99.90;;;13.66;100.00;99471.34;4995546;28;20058;-66
2023/03/24 01:41:38;;;;;;;13.18;5.97;;;13.40;99.90;;;13.37;100.00;99449.44;4995350;28;20042;-66
2023/03/24 01:44:29;;;;;;;12.25;5.78;;;13.40;99.90;;;13.39;100.00;99426.31;4995294;28;20043;-66
2023/03/24 01:46:59;;;;;;;11.80;4.88;;;13.50;99.90;;;13.70;100.00;99516.34;4995108;28;20046;-66
2023/03/24 01:49:33;;;;;;;17.05;5.38;;;13.40;99.90;;;13.58;100.00;99519.47;4993969;28;20042;-66
2023/03/24 01:52:07;;;;;;;17.50;6.72;;;13.30;99.90;;;13.56;100.00;99537.25;4993938;28;20050;-66
2023/03/24 01:54:40;;;;;;;20.55;6.60;;;13.30;99.90;;;13.56;100.00;99545.22;4995119;28;20448;-66
2023/03/24 01:57:15;;;;;;;18.63;5.75;;;13.20;99.90;;;13.42;100.00;99540.44;4993530;28;20083;-66
2023/03/24 01:59:49;;;;;;;19.25;5.80;;;13.20;99.90;;;12.90;100.00;99465.38;4993945;28;20526;-65
2023/03/24 02:02:44;;;;;;;21.20;6.32;;;13.10;99.90;;;13.24;100.00;99553.53;4994439;28;20056;-65
2023/03/24 02:05:19;;;;;;;19.70;6.60;;;13.00;99.90;;;13.20;100.00;99552.75;4993701;28;20050;-66
2023/03/24 02:07:52;;;;;;;23.20;6.60;;;12.90;99.90;;;12.97;100.00;99530.59;4993625;28;20087;-65
2023/03/24 02:10:24;;;;;;;25.80;6.38;;;12.80;99.90;;;13.20;100.00;99568.69;4993696;28;20050;-66
2023/03/24 02:12:52;;;;;;;22.38;6.78;;;12.90;99.90;;;13.13;99.14;99567.16;4994687;28;20444;-66
2023/03/24 02:15:24;;;;;;;19.75;6.32;;;12.80;99.90;;;13.01;98.81;99570.22;4993507;28;20085;-66
2023/03/24 02:18:04;;;;;;;27.25;7.03;;;12.80;99.90;;;12.89;98.07;99577.75;4993194;28;20050;-66
2023/03/24 02:21:31;;;;;;;18.38;6.57;;;12.70;99.90;;;12.75;98.62;99586.19;4993433;28;20051;-66
2023/03/24 02:24:54;;;;;;;24.58;5.90;;;12.50;99.90;;;12.75;98.75;99590.63;4984650;28;20149;-66
2023/03/24 02:27:47;;;;;;;21.10;7.03;;;12.50;99.90;;;12.76;98.78;99602.94;4993228;28;20062;-66
2023/03/24 02:30:57;;;;;;;20.23;6.65;;;12.40;99.90;;;12.76;98.72;99590.56;4993063;28;20046;-66
2023/03/24 02:34:24;;;;;;;26.42;6.78;;;12.50;99.90;;;12.67;98.86;99588.22;4991974;28;20097;-67
2023/03/24 02:37:38;;;;;;;21.55;6.05;;;12.40;99.90;;;12.33;98.99;99572.53;4992794;28;20046;-65
2023/03/24 02:40:24;;;;;;;24.42;6.55;;;12.20;99.90;;;12.33;99.92;99588.44;4980651;28;20060;-66
2023/03/24 02:43:19;;;;;;;24.17;6.30;;;12.10;99.90;;;12.33;100.00;99614.97;4992803;28;20487;-66
2023/03/24 02:46:04;;;;;;;32.10;7.65;;;12.10;99.90;;;12.17;100.00;99607.56;4992975;28;20137;-65
2023/03/24 02:48:38;;;;;;;23.63;7.05;;;12.00;99.90;;;12.23;100.00;99618.81;4992887;28;20058;-66
2023/03/24 02:51:14;;;;;;;25.73;6.93;;;11.90;99.90;;;12.21;100.00;99636.59;4992716;28;20061;-66
2023/03/24 02:53:55;;;;;;;23.50;7.18;;;11.90;99.90;;;12.08;100.00;99623.75;4992779;28;20046;-66
2023/03/24 02:56:32;;;;;;;;;;;11.90;99.90;;;12.12;100.00;99617.41;4993276;28;20050;-66
2023/03/24 02:59:17;;;;;;;27.20;6.93;;;11.80;99.90;;;11.93;100.00;99595.03;4992654;28;19928;-66
2023/03/24 03:01:56;;;;;;;25.77;7.47;;;11.80;99.90;;;12.05;100.00;99650.31;4992485;28;20081;-66
2023/03/24 03:04:45;;;;;;;19.88;6.78;;;11.80;99.90;;;12.04;100.00;99660.06;4992661;28;20144;-66
2023/03/24 03:07:15;;;;;;;23.92;6.82;;;11.70;99.90;;;12.01;100.00;99649.56;4992515;28;20051;-66
2023/03/24 03:09:51;;;;;;;26.73;7.57;;;11.70;99.90;;;11.99;100.00;99648.72;4994007;28;20558;-65
2023/03/24 03:12:25;;;;;;;20.35;6.70;;;11.70;99.90;;;11.99;100.00;99655.81;4993608;28;20464;-65
2023/03/24 03:15:00;;;;;;;18.85;6.97;;;11.70;99.90;;;12.01;100.00;99656.63;4992445;28;20062;-66
2023/03/24 03:17:33;;;;;;;21.15;6.72;;;11.70;99.90;;;11.86;100.00;99651.78;4993567;28;20074;-66
2023/03/24 03:20:07;;;;;;;22.40;7.03;;;11.60;99.90;;;11.97;100.00;99668.22;4992310;28;20050;-66
2023/03/24 03:22:42;;;;;;;23.08;6.97;;;11.70;99.90;;;11.96;100.00;99661.22;4993327;28;20496;-66
2023/03/24 03:25:14;;;;;;;27.90;7.93;;;11.70;99.90;;;11.88;100.00;99656.13;4992399;28;20050;-66
2023/03/24 03:27:45;;;;;;;27.63;7.70;;;11.70;99.90;;;11.79;100.00;99644.00;4993585;28;20514;-66
2023/03/24 03:30:19;;;;;;;31.70;7.43;;;11.60;99.90;;;11.81;100.00;99656.38;4993700;28;20050;-66
2023/03/24 03:32:55;;;;;;;25.33;7.53;;;11.60;99.90;;;11.76;100.00;99661.78;4993471;28;20056;-66
2023/03/24 03:35:29;;;;;;;27.63;7.10;;;11.50;99.90;;;11.78;100.00;99673.19;4993615;28;20096;-66
2023/03/24 03:38:10;;;;;;;34.53;7.53;;;11.50;99.90;;;11.74;100.00;99672.44;4992203;28;20054;-66
2023/03/24 03:40:41;;;;;;;;;;;11.50;99.90;;;11.77;100.00;99669.69;4992394;28;20060;-66
2023/03/24 03:43:20;;;;;;;31.40;7.57;;;11.50;99.90;;;11.62;100.00;99655.97;4991618;28;19976;-66
2023/03/24 03:45:48;;;;;;;32.15;7.07;;;11.50;99.90;;;11.77;100.00;99659.09;4993182;28;20046;-67
2023/03/24 03:48:20;;;;;;;34.78;7.75;;;11.50;99.90;;;11.71;100.00;99687.53;4991954;28;20445;-66
2023/03/24 03:50:49;;;;;;;31.00;7.95;;;11.50;99.90;;;11.66;100.00;99674.41;4993302;28;20436;-66
2023/03/24 03:53:38;;;;;;;33.85;8.00;;;11.50;99.90;;;11.75;100.00;99670.63;4992086;28;20069;-66
2023/03/24 03:56:07;;;;;;;29.27;7.35;;;11.50;99.90;;;11.70;100.00;99665.47;4993118;28;20043;-66
2023/03/24 03:58:45;;;;;;;31.58;7.40;;;11.50;99.90;;;11.46;100.00;99663.47;4992038;28;20843;-66
2023/03/24 04:01:20;;;;;;;29.52;7.68;;;11.40;99.90;;;11.64;100.00;99681.50;4991589;28;20058;-66
2023/03/24 04:05:19;;;;;;;35.45;8.80;;;11.30;99.90;;;11.63;100.00;99689.50;4993113;28;20050;-66
2023/03/24 04:08:17;;;;;;;33.95;8.30;;;11.40;99.90;;;11.62;100.00;99678.03;4909842;29;20051;-67
2023/03/24 04:11:49;;;;;;;36.72;7.85;;;11.40;99.90;;;11.49;100.00;99702.25;4933265;29;20054;-67
2023/03/24 04:15:14;;;;;;;34.42;7.63;;;11.30;99.90;;;11.55;100.00;99687.06;4992906;28;20049;-67
2023/03/24 04:18:31;;;;;;;33.50;8.63;;;11.30;99.90;;;11.46;100.00;99699.66;4990665;28;20054;-66
2023/03/24 04:21:27;;;;;;;36.03;8.65;;;11.20;99.90;;;11.52;100.00;99710.97;4991592;28;20046;-66
2023/03/24 04:24:10;;;;;;;42.80;8.65;;;11.20;99.90;;;11.26;100.00;99684.31;4991894;28;20093;-67
2023/03/24 04:26:48;;;;;;;40.03;8.82;;;11.20;99.90;;;11.36;100.00;99712.28;4991786;28;20523;-66
2023/03/24 04:29:25;;;;;;;44.10;9.13;;;11.20;99.90;;;11.43;100.00;99721.81;4991710;28;20038;-67
2023/03/24 04:32:01;;;;;;;45.25;9.50;;;11.20;99.90;;;11.43;100.00;99716.50;4991968;28;20554;-66
2023/03/24 04:34:36;;;;;;;42.75;8.63;;;11.20;99.90;;;11.46;100.00;99724.34;4991659;28;20054;-66
2023/03/24 04:37:20;;;;;;;49.50;9.82;;;11.20;99.90;;;11.42;100.00;99711.25;4991651;28;20047;-67
2023/03/24 04:40:14;;;;;;;44.80;9.18;;;11.20;99.90;;;11.48;100.00;99711.94;4992521;28;20054;-67
2023/03/24 04:42:47;;;;;;;49.58;8.48;;;11.20;99.90;;;11.35;100.00;99715.84;4992826;28;20480;-67
2023/03/24 04:45:17;;;;;;;49.25;9.70;;;11.20;99.90;;;11.44;100.00;99725.34;4991625;28;20254;-67
2023/03/24 04:47:55;;;;;;;45.53;9.98;;;11.20;99.90;;;11.49;100.00;99718.13;4992614;28;20047;-67
2023/03/24 04:50:54;;;;;;;53.63;10.10;;;11.20;99.90;;;10.93;100.00;99640.22;4991585;28;20047;-67
2023/03/24 04:53:24;;;;;;;38.67;8.57;;;11.20;99.90;;;11.46;100.00;99742.91;4991383;28;20496;-66
2023/03/24 04:56:18;;;;;;;44.53;9.30;;;11.20;99.90;;;11.50;100.00;99751.63;4993571;28;20046;-67
2023/03/24 04:59:00;;;;;;;43.40;8.90;;;11.20;99.90;;;11.45;100.00;99743.81;4995040;28;20046;-67
2023/03/24 05:01:29;;;;;;;41.22;9.45;;;11.20;99.90;;;11.44;100.00;99742.06;4994734;28;20408;-67
2023/03/24 05:04:17;;;;;;;40.75;9.95;;;11.20;99.90;;;11.42;100.00;99741.22;4995938;28;20093;-67
2023/03/24 05:06:48;;;;;;;47.97;9.45;;;11.20;99.90;;;11.52;100.00;99753.31;4994586;28;20074;-67
2023/03/24 05:09:24;;;;;;;37.13;8.30;;;11.20;99.90;;;11.47;100.00;99749.06;4994837;28;20455;-66
2023/03/24 05:11:53;;;;;;;43.03;9.13;;;11.30;99.90;;;11.43;100.00;99747.41;4994711;28;20050;-67
2023/03/24 05:14:23;;;;;;;35.55;8.48;;;11.20;99.90;;;11.43;100.00;99750.94;4994682;28;20101;-66
2023/03/24 05:16:52;;;;;;;37.50;7.45;;;11.20;99.90;;;11.46;100.00;99774.66;4994348;28;20096;-67
2023/03/24 05:19:22;;;;;;;39.00;8.75;;;11.20;99.90;;;11.39;100.00;99765.16;4994336;28;20522;-67
2023/03/24 05:21:52;;;;;;;44.13;8.32;;;11.20;99.90;;;11.41;100.00;99773.06;4994583;28;20046;-67
2023/03/24 05:24:21;;;;;;;42.13;8.83;;;11.10;99.90;;;11.41;100.00;99783.63;4994512;28;20050;-67
2023/03/24 05:26:49;;;;;;;28.83;6.82;;;11.20;99.90;;;11.45;100.00;99765.00;4995568;28;20053;-66
2023/03/24 05:29:20;;;;;;;;;;;11.20;99.90;;;11.43;100.00;99787.13;4994736;28;20542;-66
2023/03/24 05:31:48;;;;;;;34.25;8.15;;;11.20;99.90;;;11.38;100.00;99771.34;4994070;28;19926;-67
2023/03/24 05:34:23;;;;;;;40.22;8.43;;;11.20;99.90;;;11.48;100.00;99788.75;4994469;28;20054;-67
2023/03/24 05:37:13;;;;;;;34.97;7.80;;;11.20;99.90;;;11.37;100.00;99782.84;4995124;28;20054;-66
2023/03/24 05:39:41;;;;;;;33.03;7.70;;;11.20;99.90;;;11.42;100.00;99799.47;4995309;28;20049;-67
2023/03/24 05:42:30;;;;;;;34.67;8.15;;;11.20;99.90;;;11.54;100.00;99801.81;4994584;28;20046;-67
2023/03/24 05:45:01;;;;;;;37.45;7.53;;;11.30;99.90;;;11.46;100.00;99792.31;4994436;28;20467;-66
2023/03/24 05:47:30;;;;;;;36.03;8.77;;;11.20;99.90;;;11.52;100.00;99802.75;4994142;28;20060;-67
2023/03/24 05:50:00;;;;;;;36.80;8.15;;;11.30;99.90;;;11.49;100.00;99808.16;4994029;28;20662;-65
2023/03/24 05:52:30;;;;;;;39.80;9.18;;;11.30;99.90;;;11.56;100.00;99802.66;4993572;28;20050;-66
2023/03/24 05:55:12;;;;;;;43.03;8.52;;;11.30;99.90;;;11.56;100.00;99807.06;4993644;28;20050;-67
2023/03/24 05:57:40;;;;;;;36.20;7.88;;;11.30;99.90;;;11.54;100.00;99807.13;4993799;28;20056;-67
2023/03/24 06:00:27;;;;;;;44.10;8.68;;;11.30;99.90;;;11.59;100.00;99830.84;4993693;28;20051;-65
2023/03/24 06:03:01;;;;;;;40.58;8.90;;;11.30;99.90;;;11.55;99.93;99816.81;4993654;28;20089;-65
2023/03/24 06:05:49;;;;;;;43.78;9.00;;;11.30;99.90;;;11.53;99.89;99829.22;4993416;28;20061;-65
2023/03/24 06:08:18;;;;;;;42.30;10.07;;;11.30;99.90;;;11.59;99.74;99837.00;4993727;28;20050;-65
2023/03/24 06:10:47;;;;;;;33.88;8.18;;;11.30;99.90;;;11.57;99.61;99825.59;4993506;28;20408;-65
2023/03/24 06:13:16;;;;;;;44.03;8.82;;;11.30;99.90;;;11.64;99.70;99819.22;4993507;28;20047;-66
2023/03/24 06:15:46;;;;;;;39.20;9.35;;;11.40;99.90;;;11.64;99.17;99839.53;4993363;28;20046;-66
2023/03/24 06:18:34;;;;;;;36.40;8.65;;;11.40;99.90;;;11.64;99.28;99835.13;4993502;28;20090;-66
2023/03/24 06:21:13;;;;;;;39.83;9.25;;;11.40;99.90;;;11.58;98.88;99843.22;4993371;28;20101;-65
2023/03/24 06:23:43;;;;;;;37.42;9.15;;;11.40;99.90;;;11.53;99.20;99850.41;4993071;28;20100;-66
2023/03/24 06:26:15;;;;;;;37.63;8.07;;;11.30;99.90;;;11.67;99.11;99853.59;4994383;28;20054;-66
2023/03/24 06:28:50;;;;;;;31.88;8.38;;;11.40;99.90;;;11.18;98.56;99757.75;4993224;28;20042;-66
2023/03/24 06:31:20;;;;;;;34.72;8.30;;;11.40;99.90;;;11.78;98.61;99853.34;4992921;28;20050;-67
2023/03/24 06:33:52;;;;;;;32.33;7.65;;;11.50;99.90;;;11.81;98.20;99855.06;4993096;28;20066;-66
2023/03/24 06:36:24;;;;;;;39.78;8.45;;;11.50;99.90;;;11.84;98.26;99860.25;4992874;28;20085;-66
2023/03/24 06:38:53;;;;;;;37.45;8.75;;;11.50;99.90;;;11.83;98.02;99853.25;4992884;28;20080;-66
2023/03/24 06:41:22;;;;;;;39.38;9.52;;;11.60;99.90;;;11.94;97.86;99873.25;4992988;28;20096;-66
2023/03/24 06:43:57;;;;;;;35.28;8.27;;;11.60;99.90;;;11.95;97.54;99877.63;4992980;28;20515;-66
2023/03/24 06:46:26;;;;;;;35.00;8.73;;;11.70;99.90;;;12.12;97.17;99875.41;4994007;28;20056;-67
2023/03/24 06:48:55;;;;;;;29.55;8.00;;;11.80;99.90;;;12.18;96.96;99879.66;4992600;28;20412;-66
2023/03/24 06:51:25;;;;;;;35.90;7.70;;;11.90;99.90;;;12.36;96.52;99885.34;4992802;28;20407;-66
2023/03/24 06:53:53;;;;;;;37.55;8.65;;;12.00;99.90;;;12.45;95.88;99878.91;4992806;28;20071;-66
2023/03/24 06:56:23;;;;;;;34.67;8.50;;;12.20;99.90;;;12.53;95.46;99883.09;4992586;28;20065;-66
2023/03/24 06:58:57;;;;;;;38.47;7.78;;;12.30;99.90;;;12.60;95.04;99878.50;4992913;28;20108;-66
2023/03/24 07:01:33;;;;;;;37.75;7.82;;;12.40;99.90;;;12.74;94.58;99875.44;4992322;28;20528;-67
2023/03/24 07:04:24;;;;;;;34.55;7.90;;;12.40;99.90;;;12.83;93.75;99884.00;4993851;28;20042;-66
2023/03/24 07:07:04;;;;;;;27.63;7.65;;;12.50;99.90;;;12.82;92.95;99899.94;4992563;28;20098;-66
2023/03/24 07:10:12;;;;;;;33.08;7.97;;;12.60;99.90;;;13.07;92.63;99901.88;4992261;28;20051;-66
2023/03/24 07:12:41;;;;;;;35.45;8.05;;;12.70;99.90;;;13.14;91.74;99916.69;4992503;28;20181;-66
2023/03/24 07:15:10;;;;;;;29.40;7.20;;;12.80;99.90;;;13.14;91.03;99922.00;4993340;28;20093;-66
2023/03/24 07:17:41;;;;;;;29.52;7.65;;;12.90;99.90;;;13.11;90.54;99892.03;4991565;28;20050;-66
2023/03/24 07:20:19;;;;;;;32.97;7.47;;;13.00;99.90;;;13.28;90.06;99917.16;4992074;28;20467;-66
2023/03/24 07:22:56;;;;;;;38.00;7.78;;;13.00;99.90;;;13.27;89.23;99920.75;4992061;28;20046;-66
2023/03/24 07:25:53;;;;;;;25.38;7.70;;;13.00;99.90;;;13.37;89.29;99911.56;4986748;28;20054;-67
2023/03/24 07:28:40;;;;;;;27.65;8.57;;;13.10;99.90;;;13.21;88.56;99931.53;4993355;28;20054;-66
2023/03/24 07:31:11;;;;;;;26.42;7.00;;;13.00;99.90;;;13.20;89.01;99931.59;4992287;28;20068;-66
2023/03/24 07:33:41;;;;;;;30.85;8.23;;;13.00;99.90;;;13.26;88.86;99934.91;4992239;28;20103;-67
2023/03/24 07:36:09;;;;;;;33.42;7.78;;;13.00;99.90;;;13.20;88.35;99940.41;4992087;28;20097;-66
2023/03/24 07:38:41;;;;;;;28.08;7.32;;;13.00;99.90;;;13.40;88.93;99943.34;4993424;28;20054;-67
2023/03/24 07:41:15;;;;;;;25.63;6.55;;;13.10;99.90;;;13.36;88.42;99941.69;4991811;28;20054;-66
2023/03/24 07:43:50;;;;;;;30.90;7.18;;;13.10;99.90;;;13.41;88.14;99939.75;4992359;28;20450;-66
2023/03/24 07:46:39;;;;;;;24.30;7.00;;;13.10;99.90;;;13.37;87.64;99930.16;4992559;28;20065;-66
2023/03/24 07:49:08;;;;;;;27.15;6.60;;;13.10;99.90;;;13.26;87.42;99939.34;4991915;28;20113;-66
2023/03/24 07:51:57;;;;;;;27.50;7.53;;;13.00;99.90;;;13.28;87.71;99949.03;4991730;28;20381;-66
2023/03/24 07:54:35;;;;;;;26.55;7.25;;;13.00;99.90;;;13.38;87.60;99952.25;4992257;28;20054;-66
2023/03/24 07:57:04;;;;;;;24.00;6.82;;;13.10;99.90;;;13.51;87.67;99951.84;4993204;28;20120;-66
2023/03/24 07:59:33;;;;;;;27.05;7.25;;;13.20;99.90;;;13.63;86.88;99961.22;4991985;28;20039;-66
2023/03/24 08:02:27;;;;;;;25.10;6.88;;;13.30;99.90;;;13.59;86.75;99963.09;4991899;28;20058;-66
2023/03/24 08:05:15;;;;;;;24.02;6.43;;;13.30;99.90;;;13.52;86.49;99955.38;4993445;28;20112;-66
2023/03/24 08:08:05;;;;;;;24.40;6.53;;;13.30;99.90;;;13.49;86.55;99964.31;4993013;28;20046;-66
2023/03/24 08:10:35;;;;;;;25.10;6.57;;;13.20;99.90;;;13.50;86.38;99974.03;4992871;28;20062;-67
2023/03/24 08:13:04;;;;;;;27.02;6.78;;;13.20;99.90;;;13.43;85.66;99948.53;4993150;28;20077;-66
2023/03/24 08:15:32;;;;;;;24.48;8.45;;;13.20;99.90;;;13.34;85.98;99967.44;4992840;28;20053;-67
2023/03/24 08:18:01;;;;;;;24.98;7.15;;;13.10;99.90;;;13.29;86.40;99958.75;4991697;28;20416;-66
2023/03/24 08:20:29;;;;;;;21.80;6.28;;;13.10;99.90;;;13.29;86.24;99969.38;4992794;28;20042;-66
2023/03/24 08:22:59;;;;;;;20.95;6.57;;;13.00;99.90;;;13.35;86.34;99970.97;4992794;28;20496;-67
2023/03/24 08:25:28;;;;;;;21.27;6.30;;;13.10;99.90;;;13.48;86.23;99989.16;4992995;28;20104;-67
2023/03/24 08:27:57;;;;;;;21.65;6.53;;;13.10;99.90;;;13.62;86.34;99985.19;4993116;28;20070;-66
2023/03/24 08:30:26;;;;;;;23.17;7.27;;;13.30;99.90;;;13.74;85.60;99980.38;4995996;28;20074;-65
2023/03/24 08:32:58;;;;;;;23.02;7.13;;;13.40;99.90;;;13.58;84.44;99949.88;4996437;28;20786;-65
2023/03/24 08:35:30;;;;;;;22.48;7.03;;;13.50;99.90;;;13.67;84.07;99984.13;4996331;28;20376;-65
2023/03/24 08:37:59;;;;;;;24.77;6.90;;;13.50;99.90;;;13.70;84.05;99989.38;4996582;28;20050;-67
2023/03/24 08:40:30;;;;;;;30.75;7.20;;;13.50;99.90;;;13.65;84.30;99993.94;4995138;28;20042;-65
2023/03/24 08:43:02;;;;;;;;;;;13.40;99.90;;;13.67;84.28;99965.53;4995667;28;20530;-66
2023/03/24 08:45:32;;;;;;;23.45;6.50;;;13.40;99.90;;;13.65;84.79;99985.06;4996599;28;19925;-66
2023/03/24 08:48:04;;;;;;;25.35;6.20;;;13.40;99.90;;;13.13;84.33;99893.72;4994924;28;20050;-66
2023/03/24 08:50:36;;;;;;;19.88;7.07;;;13.50;99.90;;;13.90;84.23;100013.50;4996432;28;20054;-68
2023/03/24 08:53:05;;;;;;;22.35;6.38;;;13.60;99.90;;;13.95;84.07;100000.97;4996384;28;20446;-69
2023/03/24 08:55:33;;;;;;;24.08;6.90;;;13.70;99.90;;;13.96;83.74;99993.81;4996043;28;20045;-69
2023/03/24 08:58:03;;;;;;;27.02;7.38;;;13.70;99.90;;;13.70;82.17;100015.06;4994730;28;20057;-69
2023/03/24 09:00:31;;;;;;;23.85;6.97;;;13.50;99.90;;;13.90;81.59;100029.47;4994605;28;20500;-69
2023/03/24 09:03:00;;;;;;;28.35;7.65;;;13.60;99.90;;;13.94;81.24;100019.59;4996334;28;20475;-69
2023/03/24 09:05:29;;;;;;;25.27;6.88;;;13.70;99.90;;;14.20;81.58;100027.63;4994736;28;20141;-69
2023/03/24 09:08:12;;;;;;;25.95;7.10;;;13.90;99.90;;;14.29;80.46;100027.34;4995794;28;20077;-69
2023/03/24 09:10:42;;;;;;;28.42;6.70;;;14.00;99.90;;;14.46;80.05;100017.00;4995784;28;20046;-69
2023/03/24 09:13:13;;;;;;;28.13;7.05;;;14.20;99.90;;;14.50;79.69;100036.41;4994254;28;20542;-65
2023/03/24 09:15:47;;;;;;;30.50;7.22;;;14.20;99.90;;;14.31;78.75;100029.03;4995830;28;20050;-67
2023/03/24 09:18:17;;;;;;;27.25;7.55;;;14.10;99.90;;;14.11;78.82;100022.59;4995791;28;20447;-69
2023/03/24 09:20:46;;;;;;;26.77;7.10;;;14.00;99.90;;;14.09;78.45;100013.81;4995535;28;20477;-67
2023/03/24 09:23:15;;;;;;;29.95;7.55;;;13.90;99.90;;;14.43;79.81;100044.59;4995528;28;20507;-68
2023/03/24 09:25:43;;;;;;;25.30;7.57;;;14.10;99.90;;;14.43;79.09;100038.41;4995687;28;20050;-70
2023/03/24 09:28:15;;;;;;;26.02;7.20;;;14.20;99.90;;;14.58;79.78;100034.34;4995519;28;20101;-70
2023/03/24 09:30:44;;;;;;;28.48;7.38;;;14.30;99.90;;;14.88;79.72;100039.50;4995410;28;20150;-68
2023/03/24 09:33:12;;;;;;;25.67;6.85;;;14.60;99.90;;;15.08;78.25;100028.13;4995522;28;20508;-69
2023/03/24 09:35:41;;;;;;;25.92;7.15;;;14.80;99.90;;;15.22;78.55;100050.69;4995252;28;20039;-70
2023/03/24 09:38:11;;;;;;;24.52;7.35;;;14.90;99.90;;;15.36;77.41;100048.38;4994050;28;20043;-69
2023/03/24 09:40:40;;;;;;;21.15;6.68;;;15.00;99.90;;;15.34;75.29;100026.25;4995108;28;20046;-69
2023/03/24 09:43:20;;;;;;;25.77;6.65;;;15.20;99.90;;;15.41;74.04;100034.03;4995216;28;20050;-68
2023/03/24 09:45:52;;;;;;;22.08;6.45;;;15.20;99.90;;;15.23;74.25;100063.06;4995224;28;20050;-68
2023/03/24 09:48:31;;;;;;;29.60;6.82;;;15.00;99.90;;;15.17;75.03;100043.78;4993893;28;20047;-68
2023/03/24 09:51:04;;;;;;;27.75;7.82;;;14.90;99.90;;;15.18;74.97;100048.16;4995317;28;20554;-68
2023/03/24 09:53:43;;;;;;;21.35;6.45;;;14.90;99.90;;;14.95;74.20;100056.13;4995165;28;20045;-67
2023/03/24 09:56:16;;;;;;;21.92;6.22;;;14.80;99.90;;;14.73;74.21;100053.31;4994884;28;20069;-65
2023/03/24 09:58:53;;;;;;;27.75;7.35;;;14.50;99.90;;;14.81;75.04;100058.38;4995011;28;20046;-66
2023/03/24 10:01:22;;;;;;;24.80;7.35;;;14.60;99.90;;;14.56;75.19;100039.72;4994798;28;20054;-64
2023/03/24 10:03:50;;;;;;;24.83;6.53;;;14.40;99.90;;;14.89;75.65;100056.31;4994956;28;20488;-64
2023/03/24 10:06:25;;;;;;;30.17;7.25;;;14.60;99.90;;;15.03;75.45;100046.94;4994785;28;20050;-64
2023/03/24 10:09:13;;;;;;;23.88;6.55;;;14.70;99.90;;;14.94;75.48;100073.03;4994763;28;20517;-64
2023/03/24 10:11:50;;;;;;;21.05;6.30;;;14.70;99.90;;;14.89;75.31;100057.19;4994971;28;20455;-65
2023/03/24 10:14:38;;;;;;;22.90;6.25;;;14.70;99.90;;;14.81;75.76;100042.41;4994815;28;20089;-65
2023/03/24 10:17:20;;;;;;;20.08;6.55;;;14.60;99.90;;;14.82;75.78;100061.00;4994111;28;20488;-65
2023/03/24 10:19:57;;;;;;;21.77;6.70;;;14.60;99.90;;;14.84;75.71;100058.28;4994547;28;20053;-65
2023/03/24 10:22:36;;;;;;;21.35;6.70;;;14.60;99.90;;;14.80;76.52;100057.53;4994715;28;20069;-64
2023/03/24 10:25:14;;;;;;;23.17;6.80;;;14.60;99.90;;;14.55;76.11;100051.31;4994593;28;20492;-65
2023/03/24 10:27:49;;;;;;;28.55;7.70;;;14.30;99.90;;;14.56;77.04;100061.00;4994498;28;20050;-66
2023/03/24 10:30:23;;;;;;;28.95;7.43;;;14.20;99.90;;;14.38;76.89;100019.06;4994247;28;20053;-66
2023/03/24 10:32:53;;;;;;;23.05;7.03;;;14.20;99.90;;;14.76;77.29;100057.69;4993141;28;20057;-65
2023/03/24 10:35:27;;;;;;;22.08;7.00;;;14.40;99.90;;;15.00;77.21;100059.50;4993278;28;20047;-65
2023/03/24 10:38:01;;;;;;;21.40;6.47;;;14.70;99.90;;;14.88;76.23;100034.19;4994116;28;20104;-66
2023/03/24 10:40:33;;;;;;;20.83;6.30;;;14.70;99.90;;;15.24;76.36;100064.81;4994153;28;20148;-67
2023/03/24 10:43:05;;;;;;;22.98;7.00;;;15.00;99.90;;;15.38;75.09;100066.97;4993292;28;20054;-67
2023/03/24 10:45:41;;;;;;;19.80;6.45;;;15.10;99.90;;;15.25;74.46;100065.69;4994165;28;20074;-67
2023/03/24 10:48:13;;;;;;;21.58;6.50;;;15.00;99.90;;;15.07;74.13;100067.22;4994041;28;20105;-67